Time;durP1;ratioP1;P1;durP2;ratioP2;P2;SDS_P1;SDS_P2;PMS_P1;PMS_P2;Temp;Humidity;BMP_temperature;BMP_pressure;BME280_temperature;BME280_humidity;BME280_pressure;Samples;Min_cycle;Max_cycle;Signal;HPM_P1;HPM_P2
2023/12/13 00:01:46;;;;;;;13.60;8.85;;;;;;;;;;5106177;28;20355;-82
2023/12/13 00:04:11;;;;;;;15.00;9.43;;;6.00;99.90;;;;;;5092045;28;20044;-72
2023/12/13 00:06:38;;;;;;;12.07;7.47;;;6.00;99.90;;;;;;5083539;28;20048;-72
2023/12/13 00:09:04;;;;;;;13.70;8.82;;;6.00;99.90;;;;;;5084408;28;20203;-73
2023/12/13 00:11:30;;;;;;;11.23;8.00;;;6.10;99.90;;;;;;5084001;28;20020;-73
2023/12/13 00:13:55;;;;;;;13.18;7.68;;;6.10;99.90;;;;;;5084932;28;20258;-74
2023/12/13 00:16:23;;;;;;;11.30;7.88;;;6.00;99.90;;;;;;5083945;28;20087;-74
2023/12/13 00:18:48;;;;;;;10.93;8.18;;;6.10;99.90;;;;;;5083850;28;20016;-72
2023/12/13 00:21:18;;;;;;;10.98;7.10;;;;;;;;;;5083682;28;20045;-74
2023/12/13 00:23:45;;;;;;;10.55;7.43;;;6.10;99.90;;;;;;5085858;28;20028;-76
2023/12/13 00:26:15;;;;;;;13.30;7.40;;;6.00;99.90;;;;;;5083557;28;20447;-78
2023/12/13 00:28:41;;;;;;;10.55;7.60;;;;;;;;;;5084565;28;20025;-73
2023/12/13 00:31:07;;;;;;;9.60;7.57;;;6.10;99.90;;;;;;5084120;28;20035;-74
2023/12/13 00:33:33;;;;;;;10.85;7.68;;;;;;;;;;5083953;28;20082;-72
2023/12/13 00:35:59;;;;;;;8.85;6.90;;;6.40;99.90;;;;;;5083449;28;20052;-74
2023/12/13 00:38:25;;;;;;;11.15;7.43;;;;;;;;;;5083233;28;20050;-74
2023/12/13 00:40:51;;;;;;;9.70;6.40;;;6.40;99.90;;;;;;5083470;28;20032;-73
2023/12/13 00:43:17;;;;;;;7.97;6.18;;;;;;;;;;5082449;28;20096;-73
2023/12/13 00:45:43;;;;;;;10.27;7.20;;;6.30;99.90;;;;;;5082091;28;20095;-73
2023/12/13 00:48:09;;;;;;;11.80;7.47;;;6.30;99.90;;;;;;5083809;28;20047;-75
2023/12/13 00:50:35;;;;;;;11.43;7.68;;;;;;;;;;5082323;28;20012;-74
2023/12/13 00:53:01;;;;;;;12.65;7.65;;;;;;;;;;5083377;28;20145;-73
2023/12/13 00:55:27;;;;;;;11.70;7.40;;;6.10;99.90;;;;;;5082829;28;20039;-75
2023/12/13 00:57:54;;;;;;;14.27;8.35;;;;;;;;;;5084151;28;20016;-73
2023/12/13 01:00:19;;;;;;;12.20;8.38;;;6.10;99.90;;;;;;5082978;28;20020;-73
2023/12/13 01:02:46;;;;;;;13.27;7.78;;;;;;;;;;5082950;28;20044;-73
2023/12/13 01:05:12;;;;;;;14.55;9.77;;;;;;;;;;5083306;28;20043;-73
2023/12/13 01:07:37;;;;;;;17.48;10.75;;;6.00;99.90;;;;;;5081461;28;20043;-74
2023/12/13 01:10:04;;;;;;;16.42;10.52;;;;;;;;;;5081977;28;20016;-73
2023/12/13 01:12:30;;;;;;;15.93;10.75;;;6.20;99.90;;;;;;5081779;28;20056;-74
2023/12/13 01:14:56;;;;;;;18.30;11.88;;;;;;;;;;5082779;28;20312;-74
2023/12/13 01:17:21;;;;;;;20.33;11.98;;;6.20;99.90;;;;;;5081359;28;20027;-74
2023/12/13 01:19:47;;;;;;;18.90;11.68;;;;;;;;;;5082696;28;20028;-73
2023/12/13 01:22:13;;;;;;;23.65;12.93;;;6.10;99.90;;;;;;5082537;28;20097;-73
2023/12/13 01:24:39;;;;;;;19.40;11.45;;;6.30;99.90;;;;;;5083277;28;20312;-74
2023/12/13 01:27:05;;;;;;;17.08;11.57;;;;;;;;;;5082681;28;20056;-75
2023/12/13 01:29:31;;;;;;;23.38;11.98;;;6.20;99.90;;;;;;5082762;28;20016;-73
2023/12/13 01:31:57;;;;;;;17.13;10.82;;;;;;;;;;5082853;28;20111;-73
2023/12/13 01:34:23;;;;;;;22.23;12.20;;;;;;;;;;5082585;28;20039;-73
2023/12/13 01:36:49;;;;;;;20.38;11.52;;;6.00;99.90;;;;;;5082413;28;20044;-74
2023/12/13 01:39:16;;;;;;;21.98;12.77;;;;;;;;;;5082565;28;20126;-73
2023/12/13 01:41:42;;;;;;;19.98;12.73;;;6.20;99.90;;;;;;5081006;28;20028;-73
2023/12/13 01:44:09;;;;;;;19.63;11.15;;;6.10;99.90;;;;;;5081909;28;20055;-70
2023/12/13 01:46:35;;;;;;;21.38;11.48;;;6.10;99.90;;;;;;5070682;28;20086;-70
2023/12/13 01:49:01;;;;;;;22.00;11.60;;;6.10;99.90;;;;;;5061773;28;20096;-70
2023/12/13 01:51:28;;;;;;;16.50;10.70;;;6.30;99.90;;;;;;5061696;28;20017;-73
2023/12/13 01:53:54;;;;;;;18.00;10.55;;;6.20;99.90;;;;;;5059710;28;20020;-73
2023/12/13 01:56:20;;;;;;;16.08;9.80;;;6.40;99.90;;;;;;5061708;28;20075;-74
2023/12/13 01:58:46;;;;;;;15.57;9.60;;;6.20;99.90;;;;;;5061803;28;20213;-76
2023/12/13 02:01:12;;;;;;;14.73;9.02;;;6.30;99.90;;;;;;5062381;28;20041;-76
2023/12/13 02:03:38;;;;;;;14.20;8.43;;;6.30;99.90;;;;;;5061242;28;20020;-73
2023/12/13 02:06:04;;;;;;;13.25;8.68;;;6.30;99.90;;;;;;5061435;28;20035;-74
2023/12/13 02:08:30;;;;;;;11.63;8.25;;;6.30;99.90;;;;;;5071985;28;20040;-74
2023/12/13 02:10:58;;;;;;;12.50;8.05;;;6.40;99.90;;;;;;5081878;28;20037;-77
2023/12/13 02:13:24;;;;;;;12.40;8.55;;;;;;;;;;5082848;28;20078;-77
2023/12/13 02:15:50;;;;;;;10.48;7.03;;;6.40;99.90;;;;;;5083962;28;20017;-76
2023/12/13 02:18:16;;;;;;;9.13;6.43;;;;;;;;;;5082978;28;20063;-72
2023/12/13 02:20:45;;;;;;;8.82;5.85;;;6.40;99.90;;;;;;5081135;28;20020;-73
2023/12/13 02:23:11;;;;;;;11.30;6.28;;;;;;;;;;5081523;28;20024;-74
2023/12/13 02:25:38;;;;;;;8.07;5.63;;;6.30;99.90;;;;;;5080020;28;20358;-74
2023/12/13 02:28:05;;;;;;;7.50;5.75;;;6.20;99.90;;;;;;5081249;28;20040;-75
2023/12/13 02:30:31;;;;;;;7.63;5.40;;;6.40;99.90;;;;;;5081488;28;20017;-75
2023/12/13 02:32:57;;;;;;;7.28;5.25;;;6.30;99.90;;;;;;5081543;28;20035;-74
2023/12/13 02:35:23;;;;;;;8.63;6.25;;;;;;;;;;5080089;28;20012;-75
2023/12/13 02:37:49;;;;;;;7.70;5.68;;;6.40;99.90;;;;;;5081022;28;20224;-75
2023/12/13 02:40:17;;;;;;;6.50;4.65;;;6.20;99.90;;;;;;5080997;28;20091;-73
2023/12/13 02:42:43;;;;;;;6.97;5.03;;;6.30;99.90;;;;;;5079636;28;20047;-74
2023/12/13 02:45:11;;;;;;;6.68;4.88;;;6.30;99.90;;;;;;5081219;28;20316;-73
2023/12/13 02:47:42;;;;;;;6.93;4.53;;;;;;;;;;5080913;28;20032;-73
2023/12/13 02:50:12;;;;;;;8.27;5.60;;;6.20;99.90;;;;;;5080911;28;20020;-73
2023/12/13 02:52:41;;;;;;;6.07;4.65;;;6.60;99.90;;;;;;5080887;28;20082;-73
2023/12/13 02:55:11;;;;;;;9.40;6.40;;;6.20;99.90;;;;;;5080517;28;20027;-73
2023/12/13 02:57:40;;;;;;;16.77;9.65;;;6.30;99.90;;;;;;5080664;28;20033;-72
2023/12/13 03:00:06;;;;;;;12.80;7.93;;;;;;;;;;5080655;28;20044;-73
2023/12/13 03:02:32;;;;;;;13.10;9.32;;;;;;;;;;5080503;28;20054;-73
2023/12/13 03:05:00;;;;;;;15.52;10.18;;;6.00;99.90;;;;;;5080637;28;20016;-73
2023/12/13 03:07:26;;;;;;;14.82;10.40;;;;;;;;;;5084852;28;20040;-73
2023/12/13 03:09:52;;;;;;;12.98;9.13;;;;;;;;;;5102211;28;20321;-74
2023/12/13 03:12:17;;;;;;;14.38;9.52;;;6.00;99.90;;;;;;5105960;28;20032;-76
2023/12/13 03:14:43;;;;;;;13.82;9.45;;;6.00;99.90;;;;;;5106887;28;20026;-76
2023/12/13 03:17:09;;;;;;;13.32;8.38;;;;;;;;;;5106394;28;20028;-73
2023/12/13 03:19:35;;;;;;;14.00;9.27;;;;;;;;;;5105933;28;20020;-73
2023/12/13 03:22:01;;;;;;;9.50;6.13;;;5.70;99.90;;;;;;5105077;28;20087;-73
2023/12/13 03:24:26;;;;;;;10.00;6.93;;;5.70;99.90;;;;;;5105860;28;20020;-74
2023/12/13 03:26:52;;;;;;;15.07;7.32;;;;;;;;;;5089650;28;20098;-74
2023/12/13 03:29:18;;;;;;;7.70;6.13;;;5.70;99.90;;;;;;5084531;28;20028;-82
2023/12/13 03:31:44;;;;;;;10.27;7.78;;;5.70;99.90;;;;;;5087878;28;20062;-83
2023/12/13 03:34:09;;;;;;;7.38;5.70;;;5.70;99.90;;;;;;5087145;28;20079;-75
2023/12/13 03:36:35;;;;;;;10.70;7.50;;;;;;;;;;5088009;28;20319;-75
2023/12/13 03:39:01;;;;;;;10.50;6.72;;;;;;;;;;5087456;28;20066;-75
2023/12/13 03:41:27;;;;;;;9.32;6.50;;;5.70;99.90;;;;;;5087146;28;20411;-75
2023/12/13 03:43:53;;;;;;;10.40;6.68;;;;;;;;;;5087653;28;20312;-75
2023/12/13 03:46:20;;;;;;;7.50;5.57;;;5.70;99.90;;;;;;5086462;28;20230;-74
2023/12/13 03:48:46;;;;;;;7.93;6.30;;;;;;;;;;5086216;28;20326;-75
2023/12/13 03:51:12;;;;;;;8.05;5.68;;;5.70;99.90;;;;;;5086216;28;20109;-76
2023/12/13 03:53:39;;;;;;;18.92;6.78;;;5.60;99.90;;;;;;5089761;28;20114;-75
2023/12/13 03:56:05;;;;;;;6.53;4.82;;;5.80;99.90;;;;;;5087253;28;20056;-79
2023/12/13 03:58:31;;;;;;;5.32;3.85;;;5.70;99.90;;;;;;5089297;28;20017;-78
2023/12/13 04:00:59;;;;;;;7.22;4.93;;;5.70;99.90;;;;;;5087398;28;20031;-73
2023/12/13 04:03:25;;;;;;;8.63;4.63;;;;;;;;;;5088846;28;20035;-77
2023/12/13 04:05:51;;;;;;;6.72;3.70;;;;;;;;;;5088929;28;20052;-76
2023/12/13 04:08:17;;;;;;;4.60;3.97;;;;;;;;;;5088887;28;20036;-76
2023/12/13 04:10:42;;;;;;;4.50;3.70;;;5.80;99.90;;;;;;5091884;28;20024;-79
2023/12/13 04:13:09;;;;;;;3.80;2.72;;;;;;;;;;5109404;28;20023;-78
2023/12/13 04:15:34;;;;;;;3.88;3.08;;;5.70;99.90;;;;;;5109038;28;20023;-76
2023/12/13 04:18:00;;;;;;;3.60;2.90;;;5.60;99.90;;;;;;5108669;28;20024;-76
2023/12/13 04:20:26;;;;;;;4.50;3.63;;;;;;;;;;5108915;28;20092;-78
2023/12/13 04:22:52;;;;;;;3.58;3.28;;;;;;;;;;5107910;28;20038;-76
2023/12/13 04:25:18;;;;;;;4.25;3.00;;;5.60;99.90;;;;;;5108407;28;20039;-77
2023/12/13 04:27:45;;;;;;;4.07;3.00;;;;;;;;;;5105754;28;20047;-76
2023/12/13 04:30:11;;;;;;;4.43;3.03;;;6.00;99.90;;;;;;5105630;28;20038;-76
2023/12/13 04:32:38;;;;;;;4.57;3.20;;;5.70;99.90;;;;;;5103931;28;20371;-76
2023/12/13 04:35:05;;;;;;;3.38;2.55;;;5.60;99.90;;;;;;5105415;28;20087;-76
2023/12/13 04:37:31;;;;;;;4.07;3.60;;;;;;;;;;5096260;28;20036;-76
2023/12/13 04:39:58;;;;;;;3.20;2.90;;;;;;;;;;5085545;28;20024;-75
2023/12/13 04:42:24;;;;;;;3.47;2.80;;;5.50;99.90;;;;;;5085580;28;20016;-76
2023/12/13 04:44:50;;;;;;;3.92;2.97;;;5.80;99.90;;;;;;5085482;28;20029;-73
2023/12/13 04:47:16;;;;;;;3.80;3.10;;;5.60;99.90;;;;;;5084390;28;20113;-74
2023/12/13 04:49:41;;;;;;;3.67;2.95;;;5.70;99.90;;;;;;5082964;28;20020;-73
2023/12/13 04:52:07;;;;;;;3.67;3.28;;;5.80;99.90;;;;;;5084704;28;20035;-74
2023/12/13 04:54:35;;;;;;;3.50;3.10;;;5.50;99.90;;;;;;5085043;28;20024;-73
2023/12/13 04:57:01;;;;;;;3.47;3.00;;;6.10;99.90;;;;;;5085042;28;20021;-74
2023/12/13 04:59:27;;;;;;;4.40;3.20;;;;;;;;;;5084229;28;20019;-74
2023/12/13 05:01:53;;;;;;;5.13;3.05;;;;;;;;;;5084394;28;20052;-77
2023/12/13 05:04:19;;;;;;;6.53;4.10;;;5.60;99.90;;;;;;5085829;28;20020;-79
2023/12/13 05:06:45;;;;;;;3.90;3.28;;;;;;;;;;5086087;28;20063;-83
2023/12/13 05:09:11;;;;;;;5.15;2.72;;;;;;;;;;5085275;28;20021;-73
2023/12/13 05:11:36;;;;;;;3.63;3.00;;;5.60;99.90;;;;;;5083683;28;20044;-76
2023/12/13 05:14:03;;;;;;;5.13;3.25;;;6.20;99.90;;;;;;5078811;28;20017;-81
2023/12/13 05:16:29;;;;;;;5.50;4.10;;;5.70;99.90;;;;;;5086420;28;20042;-83
2023/12/13 05:18:55;;;;;;;5.45;4.43;;;;;;;;;;5085299;28;20017;-84
2023/12/13 05:21:21;;;;;;;7.75;4.90;;;;;;;;;;5082482;28;20032;-82
2023/12/13 05:23:47;;;;;;;5.30;3.97;;;;;;;;;;5106497;28;20303;-83
2023/12/13 05:26:13;;;;;;;5.25;3.53;;;5.70;99.90;;;;;;5104448;28;20045;-80
2023/12/13 05:28:39;;;;;;;5.65;4.40;;;;;;;;;;5105344;28;20043;-82
2023/12/13 05:31:05;;;;;;;5.22;4.15;;;5.50;99.90;;;;;;5106146;28;20083;-75
2023/12/13 05:33:31;;;;;;;5.22;4.32;;;;;;;;;;5083646;28;20336;-74
2023/12/13 05:35:57;;;;;;;4.70;3.90;;;5.70;99.90;;;;;;5074398;28;20036;-77
2023/12/13 05:38:22;;;;;;;7.65;5.05;;;5.50;99.90;;;;;;5069301;28;20017;-80
2023/12/13 05:40:48;;;;;;;7.57;4.90;;;5.50;99.90;;;;;;5072431;28;20017;-81
2023/12/13 05:43:14;;;;;;;6.20;4.68;;;;;;;;;;5071605;28;20020;-80
2023/12/13 05:45:40;;;;;;;6.13;4.45;;;;;;;;;;5069432;28;20057;-85
2023/12/13 05:48:06;;;;;;;6.07;5.00;;;;;;;;;;5065872;28;20041;-71
2023/12/13 05:50:31;;;;;;;4.85;4.35;;;5.60;99.90;;;;;;5064291;28;20251;-73
2023/12/13 05:52:57;;;;;;;5.63;4.32;;;5.70;99.90;;;;;;5064493;28;20028;-71
2023/12/13 05:55:23;;;;;;;5.68;4.55;;;5.50;99.90;;;;;;5068848;28;20036;-70
2023/12/13 05:57:49;;;;;;;7.70;4.60;;;;;;;;;;5083691;28;20082;-73
2023/12/13 06:00:15;;;;;;;6.72;4.72;;;5.50;99.90;;;;;;5085950;28;20025;-75
2023/12/13 06:02:40;;;;;;;5.03;4.00;;;5.50;99.90;;;;;;5083712;28;20063;-73
2023/12/13 06:05:07;;;;;;;4.85;3.67;;;5.50;99.90;;;;;;5083445;28;20028;-74
2023/12/13 06:07:33;;;;;;;4.47;3.38;;;;;;;;;;5084432;28;20055;-75
2023/12/13 06:09:59;;;;;;;6.63;3.97;;;;;;;;;;5084289;28;20051;-73
2023/12/13 06:12:25;;;;;;;5.60;3.65;;;;;;;;;;5084412;28;20032;-76
2023/12/13 06:14:51;;;;;;;16.67;3.60;;;5.90;99.90;;;;;;5084156;28;20028;-79
2023/12/13 06:17:17;;;;;;;80.93;5.32;;;;;;;;;;5083441;28;20039;-74
2023/12/13 06:19:42;;;;;;;126.13;6.18;;;5.20;99.90;;;;;;5084430;28;20028;-74
2023/12/13 06:22:10;;;;;;;22.67;4.70;;;5.40;99.90;;;;;;5081216;28;20019;-73
2023/12/13 06:24:35;;;;;;;38.42;4.57;;;5.80;99.90;;;;;;5081296;28;20150;-74
2023/12/13 06:27:01;;;;;;;24.42;5.38;;;5.50;99.90;;;;;;5082168;28;20328;-73
2023/12/13 06:29:27;;;;;;;9.20;4.80;;;;;;;;;;5081611;28;20231;-81
2023/12/13 06:31:53;;;;;;;10.27;4.82;;;5.40;99.90;;;;;;5084114;28;20016;-80
2023/12/13 06:34:19;;;;;;;8.40;4.10;;;;;;;;;;5083884;28;20019;-80
2023/12/13 06:36:45;;;;;;;182.90;7.35;;;5.00;99.90;;;;;;5084138;28;20367;-81
2023/12/13 06:39:11;;;;;;;67.88;5.15;;;;;;;;;;5084288;28;20035;-83
2023/12/13 06:41:40;;;;;;;83.68;5.57;;;5.40;99.90;;;;;;5084653;28;20040;-83
2023/12/13 06:44:07;;;;;;;94.05;6.43;;;5.30;99.90;;;;;;5084593;28;20029;-80
2023/12/13 06:46:33;;;;;;;82.63;5.88;;;5.50;99.90;;;;;;5084911;28;20350;-80
2023/12/13 06:48:59;;;;;;;75.20;6.65;;;;;;;;;;5084878;28;20043;-80
2023/12/13 06:51:25;;;;;;;170.75;8.77;;;5.80;99.90;;;;;;5075475;28;20021;-81
2023/12/13 06:53:51;;;;;;;33.42;6.72;;;;;;;;;;5064066;28;20032;-81
2023/12/13 06:56:17;;;;;;;24.13;6.28;;;;;;;;;;5063825;28;20025;-80
2023/12/13 06:58:43;;;;;;;37.10;6.30;;;5.20;99.90;;;;;;5062693;28;20084;-82
2023/12/13 07:01:09;;;;;;;28.65;6.20;;;;;;;;;;5063001;28;20068;-79
2023/12/13 07:03:34;;;;;;;64.07;6.15;;;5.30;99.90;;;;;;5063108;28;20024;-81
2023/12/13 07:06:00;;;;;;;92.75;6.63;;;;;;;;;;5061856;28;20037;-80
2023/12/13 07:08:26;;;;;;;62.28;5.88;;;;;;;;;;5080679;28;20052;-80
2023/12/13 07:10:52;;;;;;;22.13;5.05;;;5.30;99.90;;;;;;5083380;28;20066;-80
2023/12/13 07:13:18;;;;;;;13.98;5.57;;;;;;;;;;5083466;28;20036;-80
2023/12/13 07:15:44;;;;;;;12.00;5.10;;;5.50;99.90;;;;;;5084920;28;20017;-84
2023/12/13 07:18:10;;;;;;;14.48;5.43;;;5.30;99.90;;;;;;5084575;28;20025;-84
2023/12/13 07:20:36;;;;;;;18.38;5.32;;;;;;;;;;5085693;28;20020;-84
2023/12/13 07:23:02;;;;;;;70.18;6.03;;;;;;;;;;5082601;28;20055;-81
2023/12/13 07:25:29;;;;;;;8.35;5.53;;;;;;;;;;5081271;28;20115;-80
2023/12/13 07:27:54;;;;;;;8.57;5.22;;;5.20;99.90;;;;;;5081560;28;20029;-80
2023/12/13 07:30:23;;;;;;;9.85;6.00;;;5.10;99.90;;;;;;5082716;28;20040;-80
2023/12/13 07:32:49;;;;;;;10.65;6.55;;;;;;;;;;5081902;28;20021;-80
2023/12/13 07:35:15;;;;;;;10.98;6.53;;;5.40;99.90;;;;;;5081930;28;20024;-80
2023/12/13 07:37:41;;;;;;;11.95;6.78;;;;;;;;;;5081789;28;20029;-80
2023/12/13 07:40:07;;;;;;;12.77;7.10;;;5.40;99.90;;;;;;5081551;28;20025;-81
2023/12/13 07:42:33;;;;;;;31.52;7.75;;;5.40;99.90;;;;;;5081853;28;20031;-80
2023/12/13 07:44:59;;;;;;;12.68;8.30;;;7.00;99.90;;;;;;5080345;28;20024;-81
2023/12/13 07:47:25;;;;;;;19.88;11.43;;;;;;;;;;5081899;28;20063;-80
2023/12/13 07:49:53;;;;;;;19.80;12.38;;;;;;;;;;5081712;28;20024;-80
2023/12/13 07:52:18;;;;;;;18.35;10.88;;;5.70;99.90;;;;;;5082645;28;20020;-80
2023/12/13 07:54:44;;;;;;;14.35;9.45;;;;;;;;;;5085280;28;20099;-75
2023/12/13 07:57:10;;;;;;;10.55;7.15;;;5.60;99.90;;;;;;5082041;28;20313;-76
2023/12/13 07:59:36;;;;;;;12.27;7.45;;;;;;;;;;5077656;28;20029;-75
2023/12/13 08:02:02;;;;;;;10.93;7.28;;;6.10;99.90;;;;;;5079370;28;20321;-78
2023/12/13 08:04:28;;;;;;;11.02;6.72;;;;;;;;;;5075972;28;20032;-75
2023/12/13 08:06:54;;;;;;;9.63;6.38;;;5.80;99.90;;;;;;5077731;28;20037;-76
2023/12/13 08:09:20;;;;;;;11.07;6.20;;;;;;;;;;5074750;28;20036;-76
2023/12/13 08:11:46;;;;;;;7.72;6.18;;;5.80;99.90;;;;;;5083714;28;20054;-75
2023/12/13 08:14:16;;;;;;;10.60;6.10;;;5.90;99.90;;;;;;5083715;28;20220;-78
2023/12/13 08:16:42;;;;;;;9.95;6.18;;;5.90;99.90;;;;;;5084019;28;20025;-78
2023/12/13 08:19:08;;;;;;;86.22;7.85;;;5.80;99.90;;;;;;5084144;28;20032;-78
2023/12/13 08:21:40;;;;;;;123.68;8.40;;;5.80;99.90;;;;;;5083623;28;20542;-78
2023/12/13 08:24:07;;;;;;;90.78;8.02;;;6.00;99.90;;;;;;5084167;28;20315;-78
2023/12/13 08:26:33;;;;;;;149.40;7.43;;;;;;;;;;5082718;28;20028;-77
2023/12/13 08:28:59;;;;;;;104.30;6.97;;;5.50;99.90;;;;;;5084067;28;20223;-78
2023/12/13 08:31:25;;;;;;;106.05;8.02;;;;;;;;;;5084667;28;20056;-78
2023/12/13 08:33:51;;;;;;;172.55;9.13;;;;;;;;;;5084398;28;20040;-78
2023/12/13 08:36:17;;;;;;;107.35;8.25;;;5.80;99.90;;;;;;5082970;28;20056;-78
2023/12/13 08:38:43;;;;;;;141.45;8.27;;;5.90;99.90;;;;;;5083727;28;20031;-77
2023/12/13 08:41:09;;;;;;;123.75;7.90;;;5.60;99.90;;;;;;5083552;28;20078;-77
2023/12/13 08:43:35;;;;;;;104.93;7.45;;;;;;;;;;5083876;28;20028;-77
2023/12/13 08:46:01;;;;;;;136.15;7.90;;;5.90;99.90;;;;;;5082335;28;20020;-78
2023/12/13 08:48:27;;;;;;;112.38;7.70;;;5.70;99.90;;;;;;5083633;28;20239;-78
2023/12/13 08:50:53;;;;;;;59.33;7.55;;;6.00;99.90;;;;;;5084118;28;20066;-78
2023/12/13 08:53:19;;;;;;;78.38;9.07;;;;;;;;;;5084366;28;20316;-78
2023/12/13 08:55:44;;;;;;;89.03;9.32;;;5.50;99.90;;;;;;5083902;28;20028;-77
2023/12/13 08:58:11;;;;;;;43.72;9.52;;;;;;;;;;5083760;28;20037;-78
2023/12/13 09:00:47;;;;;;;48.50;10.52;;;5.60;99.90;;;;;;5083796;28;20409;-79
2023/12/13 09:03:13;;;;;;;88.25;9.30;;;5.60;99.90;;;;;;5083102;28;20115;-78
2023/12/13 09:05:39;;;;;;;216.05;9.55;;;5.70;99.90;;;;;;5084075;28;20408;-78
2023/12/13 09:08:05;;;;;;;67.47;7.40;;;;;;;;;;5083921;28;20058;-79
2023/12/13 09:10:34;;;;;;;100.75;10.20;;;;;;;;;;5083562;28;20342;-78
2023/12/13 09:13:02;;;;;;;;;;;5.70;99.90;;;;;;5083868;28;20024;-78
2023/12/13 09:15:28;;;;;;;58.40;10.38;;;5.80;99.90;;;;;;5083376;28;19962;-78
2023/12/13 09:17:54;;;;;;;70.82;9.98;;;;;;;;;;5083970;28;20323;-78
2023/12/13 09:20:20;;;;;;;127.00;10.52;;;;;;;;;;5083419;28;20126;-78
2023/12/13 09:22:45;;;;;;;186.55;13.00;;;5.60;99.90;;;;;;5082159;28;20095;-77
2023/12/13 09:25:15;;;;;;;70.00;11.40;;;;;;;;;;5083053;28;20359;-76
2023/12/13 09:27:40;;;;;;;;;;;5.70;99.90;;;;;;5083943;28;20059;-79
2023/12/13 09:30:09;;;;;;;51.22;11.45;;;;;;;;;;5083059;28;19912;-78
2023/12/13 09:32:34;;;;;;;73.43;11.15;;;5.70;99.90;;;;;;5082414;28;20024;-78
2023/12/13 09:35:01;;;;;;;65.13;12.20;;;;;;;;;;5083444;28;20032;-78
2023/12/13 09:37:27;;;;;;;52.30;11.30;;;5.70;99.90;;;;;;5083438;28;20020;-77
2023/12/13 09:39:53;;;;;;;31.10;10.77;;;5.70;99.90;;;;;;5083553;28;20088;-79
2023/12/13 09:42:19;;;;;;;40.13;10.90;;;;;;;;;;5083645;28;20024;-78
2023/12/13 09:44:49;;;;;;;139.25;12.77;;;5.60;99.90;;;;;;5083030;28;20025;-80
2023/12/13 09:47:16;;;;;;;37.35;11.25;;;5.80;99.90;;;;;;5082607;28;20044;-77
2023/12/13 09:49:42;;;;;;;76.43;10.90;;;5.80;99.90;;;;;;5081463;28;20316;-78
2023/12/13 09:52:09;;;;;;;52.17;10.05;;;5.80;99.90;;;;;;5082463;28;20027;-78
2023/12/13 09:54:39;;;;;;;207.35;12.60;;;5.80;99.90;;;;;;5082667;28;20020;-77
2023/12/13 09:57:07;;;;;;;241.05;13.80;;;5.80;99.90;;;;;;5082307;28;20028;-78
2023/12/13 09:59:34;;;;;;;179.63;12.30;;;5.70;99.90;;;;;;5082787;28;20019;-78
2023/12/13 10:01:59;;;;;;;104.82;12.50;;;5.80;99.90;;;;;;5082355;28;20083;-78
2023/12/13 10:04:28;;;;;;;25.27;10.70;;;5.80;99.90;;;;;;5082603;28;20059;-77
2023/12/13 10:06:55;;;;;;;24.42;10.45;;;5.90;99.90;;;;;;5082490;28;20319;-79
2023/12/13 10:09:20;;;;;;;20.85;10.80;;;6.00;99.90;;;;;;5082763;28;20059;-78
2023/12/13 10:11:50;;;;;;;55.72;12.38;;;6.00;99.90;;;;;;5082045;28;20079;-77
2023/12/13 10:14:15;;;;;;;26.55;12.30;;;5.90;99.90;;;;;;5081739;28;20028;-78
2023/12/13 10:16:41;;;;;;;30.60;13.90;;;;;;;;;;5081755;28;20028;-77
2023/12/13 10:19:07;;;;;;;68.70;11.52;;;6.00;99.90;;;;;;5081769;28;20017;-78
2023/12/13 10:21:35;;;;;;;52.85;15.75;;;6.00;99.90;;;;;;5081616;28;20095;-77
2023/12/13 10:24:01;;;;;;;136.27;14.23;;;6.40;99.90;;;;;;5081694;28;20208;-77
2023/12/13 10:26:27;;;;;;;109.03;13.98;;;;;;;;;;5080012;28;20025;-77
2023/12/13 10:28:53;;;;;;;146.45;20.55;;;6.00;99.90;;;;;;5081447;28;20054;-78
2023/12/13 10:31:22;;;;;;;270.17;19.75;;;5.80;99.90;;;;;;5081423;28;20009;-77
2023/12/13 10:33:48;;;;;;;224.63;20.60;;;;;;;;;;5081601;28;20016;-78
2023/12/13 10:36:14;;;;;;;116.32;19.60;;;6.10;99.90;;;;;;5081399;28;20024;-77
2023/12/13 10:38:40;;;;;;;146.75;19.77;;;;;;;;;;5081506;28;20131;-77
2023/12/13 10:41:08;;;;;;;142.98;19.50;;;5.90;99.90;;;;;;5081643;28;20028;-78
2023/12/13 10:43:37;;;;;;;147.65;21.08;;;5.70;99.90;;;;;;5081877;28;20133;-77
2023/12/13 10:46:04;;;;;;;81.43;17.98;;;5.70;99.90;;;;;;5081779;28;20020;-77
2023/12/13 10:48:37;;;;;;;115.60;19.63;;;6.00;99.90;;;;;;5081507;28;20048;-77
2023/12/13 10:51:03;;;;;;;101.53;19.13;;;5.80;99.90;;;;;;5080227;28;20025;-76
2023/12/13 10:53:32;;;;;;;83.85;18.80;;;5.90;99.90;;;;;;5081239;28;20336;-77
2023/12/13 10:56:00;;;;;;;58.53;18.15;;;6.00;99.90;;;;;;5081498;28;20024;-77
2023/12/13 10:58:27;;;;;;;98.05;19.52;;;5.90;99.90;;;;;;5081183;28;20032;-76
2023/12/13 11:00:53;;;;;;;129.20;19.50;;;;;;;;;;5081641;28;20071;-76
2023/12/13 11:03:25;;;;;;;61.05;17.63;;;5.90;99.90;;;;;;5081928;28;20450;-77
2023/12/13 11:05:51;;;;;;;106.53;19.90;;;6.00;99.90;;;;;;5081508;28;20078;-78
2023/12/13 11:08:19;;;;;;;128.05;20.90;;;5.80;99.90;;;;;;5080784;28;20335;-78
2023/12/13 11:11:04;;;;;;;307.73;24.35;;;5.90;99.90;;;;;;5081188;28;20090;-77
2023/12/13 11:13:30;;;;;;;97.15;19.05;;;;;;;;;;5081619;28;20024;-78
2023/12/13 11:15:57;;;;;;;66.45;17.63;;;;;;;;;;5081221;28;20012;-80
2023/12/13 11:18:24;;;;;;;74.82;18.60;;;6.10;99.90;;;;;;5081023;28;20021;-78
2023/12/13 11:20:55;;;;;;;57.85;18.85;;;5.90;99.90;;;;;;5080898;28;20025;-78
2023/12/13 11:23:27;;;;;;;120.53;20.50;;;6.10;99.90;;;;;;5080459;28;20340;-79
2023/12/13 11:25:54;;;;;;;224.88;19.92;;;6.10;99.90;;;;;;5079978;28;20028;-79
2023/12/13 11:28:24;;;;;;;215.52;20.67;;;6.20;99.90;;;;;;5082460;28;20040;-80
2023/12/13 11:30:53;;;;;;;309.95;21.80;;;5.90;99.90;;;;;;5084383;28;20054;-79
2023/12/13 11:33:22;;;;;;;351.27;23.02;;;5.90;99.90;;;;;;5084786;28;20025;-80
2023/12/13 11:35:50;;;;;;;233.35;20.25;;;6.00;99.90;;;;;;5083232;28;20024;-79
2023/12/13 11:38:16;;;;;;;261.70;22.20;;;;;;;;;;5085197;28;20082;-78
2023/12/13 11:40:42;;;;;;;200.43;20.60;;;5.90;99.90;;;;;;5085586;28;20047;-79
2023/12/13 11:43:08;;;;;;;218.10;20.50;;;;;;;;;;5084543;28;20236;-79
2023/12/13 11:45:35;;;;;;;197.38;21.67;;;5.70;99.90;;;;;;5085253;28;20024;-79
2023/12/13 11:48:01;;;;;;;308.58;21.98;;;5.80;99.90;;;;;;5085951;28;20104;-79
2023/12/13 11:50:27;;;;;;;322.08;23.00;;;5.90;99.90;;;;;;5086000;28;20090;-79
2023/12/13 11:52:53;;;;;;;209.43;19.67;;;6.00;99.90;;;;;;5085516;28;20041;-79
2023/12/13 11:55:20;;;;;;;207.43;19.35;;;;;;;;;;5085779;28;20028;-79
2023/12/13 11:57:46;;;;;;;134.73;19.02;;;5.70;99.90;;;;;;5085789;28;20323;-78
2023/12/13 12:00:12;;;;;;;257.17;19.75;;;;;;;;;;5085373;28;20028;-79
2023/12/13 12:02:38;;;;;;;139.27;19.10;;;5.60;99.90;;;;;;5085274;28;20056;-79
2023/12/13 12:05:06;;;;;;;281.13;20.77;;;6.30;99.90;;;;;;5085340;28;20020;-79
2023/12/13 12:07:32;;;;;;;264.50;19.38;;;5.80;99.90;;;;;;5085434;28;20338;-78
2023/12/13 12:09:59;;;;;;;127.15;19.52;;;5.80;99.90;;;;;;5085705;28;20028;-78
2023/12/13 12:12:25;;;;;;;132.52;19.20;;;5.90;99.90;;;;;;5085560;28;20028;-79
2023/12/13 12:14:51;;;;;;;111.15;20.35;;;6.30;99.90;;;;;;5085937;28;20067;-77
2023/12/13 12:17:20;;;;;;;68.70;17.73;;;5.80;99.90;;;;;;5084571;28;20088;-77
2023/12/13 12:19:50;;;;;;;192.05;20.48;;;5.70;99.90;;;;;;5087261;28;20089;-79
2023/12/13 12:22:18;;;;;;;168.05;19.90;;;5.90;99.90;;;;;;5086810;28;20044;-78
2023/12/13 12:24:51;;;;;;;108.63;19.67;;;5.80;99.90;;;;;;5083761;28;20028;-77
2023/12/13 12:27:23;;;;;;;330.05;27.45;;;5.80;99.90;;;;;;5083497;28;20032;-78
2023/12/13 12:29:48;;;;;;;94.72;22.02;;;5.80;99.90;;;;;;5083492;28;20024;-79
2023/12/13 12:32:14;;;;;;;149.13;19.15;;;6.00;99.90;;;;;;5083277;28;20066;-80
2023/12/13 12:34:40;;;;;;;154.30;19.17;;;;;;;;;;5083173;28;20228;-79
2023/12/13 12:37:06;;;;;;;195.65;20.45;;;6.00;99.90;;;;;;5082993;28;20078;-80
2023/12/13 12:39:33;;;;;;;309.23;23.92;;;9.30;99.90;;;;;;5083574;28;20012;-80
2023/12/13 12:41:59;;;;;;;182.45;19.02;;;5.90;99.90;;;;;;5083290;28;20032;-79
2023/12/13 12:44:25;;;;;;;191.63;20.80;;;5.80;99.90;;;;;;5083281;28;20319;-79
2023/12/13 12:46:51;;;;;;;140.43;17.48;;;;;;;;;;5083356;28;20062;-80
2023/12/13 12:49:19;;;;;;;231.15;21.63;;;;;;;;;;5083580;28;20294;-79
2023/12/13 12:51:45;;;;;;;261.35;22.13;;;5.60;99.90;;;;;;5083669;28;20029;-79
2023/12/13 12:54:11;;;;;;;228.63;21.60;;;5.90;99.90;;;;;;5083331;28;20102;-78
2023/12/13 12:56:37;;;;;;;195.70;21.23;;;;;;;;;;5083037;28;20081;-79
2023/12/13 12:59:03;;;;;;;156.38;21.75;;;;;;;;;;5083714;28;20016;-78
2023/12/13 13:01:30;;;;;;;74.32;18.33;;;5.80;99.90;;;;;;5081753;28;20075;-78
2023/12/13 13:03:56;;;;;;;106.55;19.13;;;5.80;99.90;;;;;;5083404;28;20028;-78
2023/12/13 13:06:22;;;;;;;52.35;20.45;;;;;;;;;;5081800;28;20351;-78
2023/12/13 13:08:49;;;;;;;46.33;21.13;;;;;;;;;;5083137;28;20051;-79
2023/12/13 13:11:15;;;;;;;167.52;21.50;;;6.10;99.90;;;;;;5083354;28;20088;-78
2023/12/13 13:13:41;;;;;;;145.93;19.45;;;;;;;;;;5083129;28;20021;-81